sensor_id;sensor_type;location;lat;lon;timestamp;temperature;humidity
27667;DHT22;15074;50.940;5.282;2023-07-16T00:00:50;17.20;99.90
27667;DHT22;15074;50.940;5.282;2023-07-16T00:03:16;17.10;99.90
27667;DHT22;15074;50.940;5.282;2023-07-16T00:05:42;17.00;99.90
27667;DHT22;15074;50.940;5.282;2023-07-16T00:08:08;16.90;99.90
27667;DHT22;15074;50.940;5.282;2023-07-16T00:10:35;16.80;99.90
27667;DHT22;15074;50.940;5.282;2023-07-16T00:13:04;16.70;99.90
27667;DHT22;15074;50.940;5.282;2023-07-16T00:15:30;16.60;99.90
27667;DHT22;15074;50.940;5.282;2023-07-16T00:17:56;16.50;99.90
27667;DHT22;15074;50.940;5.282;2023-07-16T00:20:22;16.40;99.90
27667;DHT22;15074;50.940;5.282;2023-07-16T00:22:49;16.40;99.90
27667;DHT22;15074;50.940;5.282;2023-07-16T00:25:15;16.30;99.90
27667;DHT22;15074;50.940;5.282;2023-07-16T00:27:41;16.20;99.90
27667;DHT22;15074;50.940;5.282;2023-07-16T00:30:08;16.20;99.90
27667;DHT22;15074;50.940;5.282;2023-07-16T00:32:34;16.20;99.90
27667;DHT22;15074;50.940;5.282;2023-07-16T00:35:01;16.10;99.90
27667;DHT22;15074;50.940;5.282;2023-07-16T00:37:27;16.10;99.90
27667;DHT22;15074;50.940;5.282;2023-07-16T00:39:53;16.10;99.90
27667;DHT22;15074;50.940;5.282;2023-07-16T00:42:18;16.10;99.90
27667;DHT22;15074;50.940;5.282;2023-07-16T00:44:44;16.00;99.90
27667;DHT22;15074;50.940;5.282;2023-07-16T00:47:10;16.00;99.90
27667;DHT22;15074;50.940;5.282;2023-07-16T00:49:37;16.00;99.90
27667;DHT22;15074;50.940;5.282;2023-07-16T00:52:05;16.00;99.90
27667;DHT22;15074;50.940;5.282;2023-07-16T00:54:32;16.00;99.90
27667;DHT22;15074;50.940;5.282;2023-07-16T00:56:58;16.00;99.90
27667;DHT22;15074;50.940;5.282;2023-07-16T00:59:24;16.00;99.90
27667;DHT22;15074;50.940;5.282;2023-07-16T01:01:49;15.90;99.90
27667;DHT22;15074;50.940;5.282;2023-07-16T01:04:15;16.00;99.90
27667;DHT22;15074;50.940;5.282;2023-07-16T01:06:45;15.90;99.90
27667;DHT22;15074;50.940;5.282;2023-07-16T01:09:19;15.90;99.90
27667;DHT22;15074;50.940;5.282;2023-07-16T01:11:46;15.90;99.90
27667;DHT22;15074;50.940;5.282;2023-07-16T01:14:13;15.90;99.90
27667;DHT22;15074;50.940;5.282;2023-07-16T01:16:40;15.90;99.90
27667;DHT22;15074;50.940;5.282;2023-07-16T01:19:05;15.80;99.90
27667;DHT22;15074;50.940;5.282;2023-07-16T01:21:35;15.80;99.90
27667;DHT22;15074;50.940;5.282;2023-07-16T01:24:17;15.80;99.90
27667;DHT22;15074;50.940;5.282;2023-07-16T01:27:21;15.80;99.90
27667;DHT22;15074;50.940;5.282;2023-07-16T01:30:08;15.80;99.90
27667;DHT22;15074;50.940;5.282;2023-07-16T01:32:37;15.80;99.90
27667;DHT22;15074;50.940;5.282;2023-07-16T01:35:05;15.80;99.90
27667;DHT22;15074;50.940;5.282;2023-07-16T01:37:32;15.90;99.90
27667;DHT22;15074;50.940;5.282;2023-07-16T01:39:57;15.90;99.90
27667;DHT22;15074;50.940;5.282;2023-07-16T01:42:23;15.90;99.90
27667;DHT22;15074;50.940;5.282;2023-07-16T01:44:49;15.90;99.90
27667;DHT22;15074;50.940;5.282;2023-07-16T01:49:55;16.00;99.90
27667;DHT22;15074;50.940;5.282;2023-07-16T01:52:21;16.00;99.90
27667;DHT22;15074;50.940;5.282;2023-07-16T01:54:47;16.00;99.90
27667;DHT22;15074;50.940;5.282;2023-07-16T01:57:13;16.00;99.90
27667;DHT22;15074;50.940;5.282;2023-07-16T01:59:38;16.00;99.90
27667;DHT22;15074;50.940;5.282;2023-07-16T02:02:04;16.00;99.90
27667;DHT22;15074;50.940;5.282;2023-07-16T02:04:30;16.00;99.90
27667;DHT22;15074;50.940;5.282;2023-07-16T02:06:56;16.00;99.90
27667;DHT22;15074;50.940;5.282;2023-07-16T02:09:23;16.00;99.90
27667;DHT22;15074;50.940;5.282;2023-07-16T02:11:48;15.90;99.90
27667;DHT22;15074;50.940;5.282;2023-07-16T02:14:14;15.90;99.90
27667;DHT22;15074;50.940;5.282;2023-07-16T02:16:41;15.90;99.90
27667;DHT22;15074;50.940;5.282;2023-07-16T02:19:07;15.80;99.90
27667;DHT22;15074;50.940;5.282;2023-07-16T02:21:32;15.80;99.90
27667;DHT22;15074;50.940;5.282;2023-07-16T02:23:58;15.80;99.90
27667;DHT22;15074;50.940;5.282;2023-07-16T02:26:24;15.70;99.90
27667;DHT22;15074;50.940;5.282;2023-07-16T02:28:50;15.70;99.90
27667;DHT22;15074;50.940;5.282;2023-07-16T02:31:15;15.60;99.90
27667;DHT22;15074;50.940;5.282;2023-07-16T02:33:41;15.60;99.90
27667;DHT22;15074;50.940;5.282;2023-07-16T02:36:07;15.60;99.90
27667;DHT22;15074;50.940;5.282;2023-07-16T02:38:32;15.60;99.90
27667;DHT22;15074;50.940;5.282;2023-07-16T02:40:58;15.60;99.90
27667;DHT22;15074;50.940;5.282;2023-07-16T02:43:24;15.60;99.90
27667;DHT22;15074;50.940;5.282;2023-07-16T02:45:49;15.60;99.90
27667;DHT22;15074;50.940;5.282;2023-07-16T02:48:15;15.60;99.90
27667;DHT22;15074;50.940;5.282;2023-07-16T02:50:41;15.50;99.90
27667;DHT22;15074;50.940;5.282;2023-07-16T02:53:07;15.40;99.90
27667;DHT22;15074;50.940;5.282;2023-07-16T02:55:34;15.40;99.90
27667;DHT22;15074;50.940;5.282;2023-07-16T02:58:00;15.40;99.90
27667;DHT22;15074;50.940;5.282;2023-07-16T03:00:33;15.30;99.90
27667;DHT22;15074;50.940;5.282;2023-07-16T03:03:00;15.30;99.90
27667;DHT22;15074;50.940;5.282;2023-07-16T03:05:27;15.20;99.90
27667;DHT22;15074;50.940;5.282;2023-07-16T03:07:52;15.20;99.90
27667;DHT22;15074;50.940;5.282;2023-07-16T03:10:18;15.10;99.90
27667;DHT22;15074;50.940;5.282;2023-07-16T03:12:44;15.00;99.90
27667;DHT22;15074;50.940;5.282;2023-07-16T03:15:10;15.00;99.90
27667;DHT22;15074;50.940;5.282;2023-07-16T03:17:35;15.00;99.90
27667;DHT22;15074;50.940;5.282;2023-07-16T03:20:02;15.10;99.90
27667;DHT22;15074;50.940;5.282;2023-07-16T03:22:29;15.10;99.90
27667;DHT22;15074;50.940;5.282;2023-07-16T03:24:55;15.10;99.90
27667;DHT22;15074;50.940;5.282;2023-07-16T03:27:20;15.20;99.90
27667;DHT22;15074;50.940;5.282;2023-07-16T03:29:46;15.20;99.90
27667;DHT22;15074;50.940;5.282;2023-07-16T03:32:12;15.20;99.90
27667;DHT22;15074;50.940;5.282;2023-07-16T03:34:37;15.20;99.90
27667;DHT22;15074;50.940;5.282;2023-07-16T03:37:03;15.20;99.90
27667;DHT22;15074;50.940;5.282;2023-07-16T03:39:28;15.30;99.90
27667;DHT22;15074;50.940;5.282;2023-07-16T03:41:54;15.30;99.90
27667;DHT22;15074;50.940;5.282;2023-07-16T03:44:20;15.20;99.90
27667;DHT22;15074;50.940;5.282;2023-07-16T03:46:45;15.20;99.90
27667;DHT22;15074;50.940;5.282;2023-07-16T03:49:11;15.10;99.90
27667;DHT22;15074;50.940;5.282;2023-07-16T03:51:37;15.10;99.90
27667;DHT22;15074;50.940;5.282;2023-07-16T03:54:03;15.20;99.90
27667;DHT22;15074;50.940;5.282;2023-07-16T03:56:28;15.10;99.90
27667;DHT22;15074;50.940;5.282;2023-07-16T03:58:54;15.10;99.90
27667;DHT22;15074;50.940;5.282;2023-07-16T04:01:20;15.10;99.90
27667;DHT22;15074;50.940;5.282;2023-07-16T04:03:45;15.10;99.90
27667;DHT22;15074;50.940;5.282;2023-07-16T04:06:12;15.10;99.90
27667;DHT22;15074;50.940;5.282;2023-07-16T04:08:38;15.10;99.90
27667;DHT22;15074;50.940;5.282;2023-07-16T04:11:05;15.10;99.90
27667;DHT22;15074;50.940;5.282;2023-07-16T04:13:31;15.20;99.90
27667;DHT22;15074;50.940;5.282;2023-07-16T04:15:56;15.30;99.90
27667;DHT22;15074;50.940;5.282;2023-07-16T04:18:24;15.20;99.90
27667;DHT22;15074;50.940;5.282;2023-07-16T04:20:50;15.20;99.90
27667;DHT22;15074;50.940;5.282;2023-07-16T04:23:15;15.30;99.90
27667;DHT22;15074;50.940;5.282;2023-07-16T04:25:41;15.30;99.90
27667;DHT22;15074;50.940;5.282;2023-07-16T04:28:07;15.40;99.90
27667;DHT22;15074;50.940;5.282;2023-07-16T04:30:32;15.40;99.90
27667;DHT22;15074;50.940;5.282;2023-07-16T04:32:58;15.50;99.90
27667;DHT22;15074;50.940;5.282;2023-07-16T04:35:23;15.60;99.90
27667;DHT22;15074;50.940;5.282;2023-07-16T04:37:49;15.80;99.90
27667;DHT22;15074;50.940;5.282;2023-07-16T04:40:15;16.00;99.90
27667;DHT22;15074;50.940;5.282;2023-07-16T04:42:41;16.30;99.90
27667;DHT22;15074;50.940;5.282;2023-07-16T04:45:07;16.60;99.90
27667;DHT22;15074;50.940;5.282;2023-07-16T04:47:32;16.90;99.90
27667;DHT22;15074;50.940;5.282;2023-07-16T04:49:58;17.20;99.90
27667;DHT22;15074;50.940;5.282;2023-07-16T04:52:24;17.40;99.90
27667;DHT22;15074;50.940;5.282;2023-07-16T04:54:50;17.70;99.90
27667;DHT22;15074;50.940;5.282;2023-07-16T04:57:16;17.70;99.90
27667;DHT22;15074;50.940;5.282;2023-07-16T04:59:41;17.90;99.90
27667;DHT22;15074;50.940;5.282;2023-07-16T05:02:07;18.20;99.90
27667;DHT22;15074;50.940;5.282;2023-07-16T05:04:34;18.30;99.90
27667;DHT22;15074;50.940;5.282;2023-07-16T05:07:01;18.20;99.90
27667;DHT22;15074;50.940;5.282;2023-07-16T05:09:28;18.20;99.90
27667;DHT22;15074;50.940;5.282;2023-07-16T05:11:53;18.30;99.90
27667;DHT22;15074;50.940;5.282;2023-07-16T05:14:19;18.40;99.90
27667;DHT22;15074;50.940;5.282;2023-07-16T05:16:44;18.50;99.90
27667;DHT22;15074;50.940;5.282;2023-07-16T05:19:10;18.70;99.90
27667;DHT22;15074;50.940;5.282;2023-07-16T05:21:36;18.80;99.90
27667;DHT22;15074;50.940;5.282;2023-07-16T05:24:02;18.80;99.90
27667;DHT22;15074;50.940;5.282;2023-07-16T05:26:28;19.20;99.90
27667;DHT22;15074;50.940;5.282;2023-07-16T05:28:53;19.50;99.90
27667;DHT22;15074;50.940;5.282;2023-07-16T05:31:19;19.10;99.90
27667;DHT22;15074;50.940;5.282;2023-07-16T05:33:44;19.30;99.90
27667;DHT22;15074;50.940;5.282;2023-07-16T05:36:10;19.70;99.90
27667;DHT22;15074;50.940;5.282;2023-07-16T05:38:36;19.60;99.90
27667;DHT22;15074;50.940;5.282;2023-07-16T05:41:04;19.50;99.90
27667;DHT22;15074;50.940;5.282;2023-07-16T05:43:31;19.80;99.90
27667;DHT22;15074;50.940;5.282;2023-07-16T05:45:56;19.70;99.90
27667;DHT22;15074;50.940;5.282;2023-07-16T05:48:23;19.90;99.90
27667;DHT22;15074;50.940;5.282;2023-07-16T05:50:49;19.70;99.90
27667;DHT22;15074;50.940;5.282;2023-07-16T05:53:14;19.60;99.90
27667;DHT22;15074;50.940;5.282;2023-07-16T05:55:40;19.50;99.90
27667;DHT22;15074;50.940;5.282;2023-07-16T05:58:06;20.10;99.90
27667;DHT22;15074;50.940;5.282;2023-07-16T06:00:32;21.10;99.90
27667;DHT22;15074;50.940;5.282;2023-07-16T06:02:58;21.30;99.90
27667;DHT22;15074;50.940;5.282;2023-07-16T06:05:23;20.90;99.90
27667;DHT22;15074;50.940;5.282;2023-07-16T06:07:51;20.70;99.90
27667;DHT22;15074;50.940;5.282;2023-07-16T06:10:17;20.70;99.90
27667;DHT22;15074;50.940;5.282;2023-07-16T06:12:43;20.90;99.90
27667;DHT22;15074;50.940;5.282;2023-07-16T06:15:09;20.70;99.90
27667;DHT22;15074;50.940;5.282;2023-07-16T06:17:34;20.40;99.90
27667;DHT22;15074;50.940;5.282;2023-07-16T06:20:01;20.60;99.90
27667;DHT22;15074;50.940;5.282;2023-07-16T06:22:27;21.10;99.90
27667;DHT22;15074;50.940;5.282;2023-07-16T06:24:53;21.40;99.90
27667;DHT22;15074;50.940;5.282;2023-07-16T06:27:18;20.90;99.90
27667;DHT22;15074;50.940;5.282;2023-07-16T06:29:44;21.30;99.90
27667;DHT22;15074;50.940;5.282;2023-07-16T06:32:10;21.80;99.90
27667;DHT22;15074;50.940;5.282;2023-07-16T06:34:35;21.30;99.90
27667;DHT22;15074;50.940;5.282;2023-07-16T06:37:01;21.20;99.90
27667;DHT22;15074;50.940;5.282;2023-07-16T06:39:27;21.60;99.90
27667;DHT22;15074;50.940;5.282;2023-07-16T06:41:53;21.70;99.90
27667;DHT22;15074;50.940;5.282;2023-07-16T06:44:18;21.50;99.90
27667;DHT22;15074;50.940;5.282;2023-07-16T06:46:44;21.90;99.90
27667;DHT22;15074;50.940;5.282;2023-07-16T06:49:10;22.20;99.90
27667;DHT22;15074;50.940;5.282;2023-07-16T06:51:35;22.50;99.90
27667;DHT22;15074;50.940;5.282;2023-07-16T06:54:01;22.60;99.90
27667;DHT22;15074;50.940;5.282;2023-07-16T06:56:26;22.30;99.90
27667;DHT22;15074;50.940;5.282;2023-07-16T06:58:52;22.60;99.90
27667;DHT22;15074;50.940;5.282;2023-07-16T07:01:18;23.00;99.90
27667;DHT22;15074;50.940;5.282;2023-07-16T07:03:43;23.00;99.90
27667;DHT22;15074;50.940;5.282;2023-07-16T07:06:09;23.10;99.90
27667;DHT22;15074;50.940;5.282;2023-07-16T07:08:36;23.00;99.90
27667;DHT22;15074;50.940;5.282;2023-07-16T07:11:03;22.90;99.90
27667;DHT22;15074;50.940;5.282;2023-07-16T07:13:29;23.50;99.90
27667;DHT22;15074;50.940;5.282;2023-07-16T07:15:55;24.20;99.90
27667;DHT22;15074;50.940;5.282;2023-07-16T07:18:21;23.50;99.90
27667;DHT22;15074;50.940;5.282;2023-07-16T07:20:47;23.30;99.90
27667;DHT22;15074;50.940;5.282;2023-07-16T07:23:14;23.00;99.90
27667;DHT22;15074;50.940;5.282;2023-07-16T07:25:40;22.80;99.90
27667;DHT22;15074;50.940;5.282;2023-07-16T07:28:07;22.30;99.90
27667;DHT22;15074;50.940;5.282;2023-07-16T07:30:33;22.40;99.90
27667;DHT22;15074;50.940;5.282;2023-07-16T07:36:23;24.20;99.90
27667;DHT22;15074;50.940;5.282;2023-07-16T07:38:51;24.50;99.90
27667;DHT22;15074;50.940;5.282;2023-07-16T07:41:17;24.50;99.90
27667;DHT22;15074;50.940;5.282;2023-07-16T07:43:43;24.30;99.90
27667;DHT22;15074;50.940;5.282;2023-07-16T07:46:08;23.70;99.90
27667;DHT22;15074;50.940;5.282;2023-07-16T07:48:35;23.10;99.90
27667;DHT22;15074;50.940;5.282;2023-07-16T07:54:24;23.60;99.90
27667;DHT22;15074;50.940;5.282;2023-07-16T07:56:50;23.00;99.90
27667;DHT22;15074;50.940;5.282;2023-07-16T07:59:15;22.70;99.90
27667;DHT22;15074;50.940;5.282;2023-07-16T08:01:41;23.20;99.90
27667;DHT22;15074;50.940;5.282;2023-07-16T08:04:07;23.30;99.90
27667;DHT22;15074;50.940;5.282;2023-07-16T08:06:32;23.30;99.90
27667;DHT22;15074;50.940;5.282;2023-07-16T08:08:58;23.90;99.90
27667;DHT22;15074;50.940;5.282;2023-07-16T08:11:24;23.80;99.90
27667;DHT22;15074;50.940;5.282;2023-07-16T08:13:49;23.40;99.90
27667;DHT22;15074;50.940;5.282;2023-07-16T08:16:20;23.60;99.90
27667;DHT22;15074;50.940;5.282;2023-07-16T08:22:08;24.20;99.90
27667;DHT22;15074;50.940;5.282;2023-07-16T08:24:33;25.40;99.90
27667;DHT22;15074;50.940;5.282;2023-07-16T08:26:59;25.30;99.90
27667;DHT22;15074;50.940;5.282;2023-07-16T08:29:24;25.60;99.90
27667;DHT22;15074;50.940;5.282;2023-07-16T08:31:51;26.00;99.90
27667;DHT22;15074;50.940;5.282;2023-07-16T08:34:16;26.40;99.90
27667;DHT22;15074;50.940;5.282;2023-07-16T08:36:42;26.30;99.90
27667;DHT22;15074;50.940;5.282;2023-07-16T08:39:09;26.30;99.90
27667;DHT22;15074;50.940;5.282;2023-07-16T08:41:35;26.60;99.90
27667;DHT22;15074;50.940;5.282;2023-07-16T08:44:01;25.90;99.90
27667;DHT22;15074;50.940;5.282;2023-07-16T08:46:27;26.20;99.90
27667;DHT22;15074;50.940;5.282;2023-07-16T08:48:53;26.10;99.90
27667;DHT22;15074;50.940;5.282;2023-07-16T08:51:20;25.80;99.90
27667;DHT22;15074;50.940;5.282;2023-07-16T08:53:47;25.40;99.90
27667;DHT22;15074;50.940;5.282;2023-07-16T08:56:12;25.70;99.90
27667;DHT22;15074;50.940;5.282;2023-07-16T08:58:38;25.40;99.90
27667;DHT22;15074;50.940;5.282;2023-07-16T09:01:05;25.40;99.90
27667;DHT22;15074;50.940;5.282;2023-07-16T09:03:31;24.90;99.90
27667;DHT22;15074;50.940;5.282;2023-07-16T09:05:57;23.90;99.90
27667;DHT22;15074;50.940;5.282;2023-07-16T09:08:22;24.00;99.90
27667;DHT22;15074;50.940;5.282;2023-07-16T09:10:57;24.50;99.90
27667;DHT22;15074;50.940;5.282;2023-07-16T09:13:26;25.50;99.90
27667;DHT22;15074;50.940;5.282;2023-07-16T09:15:58;26.00;99.90
27667;DHT22;15074;50.940;5.282;2023-07-16T09:18:26;25.90;99.90
27667;DHT22;15074;50.940;5.282;2023-07-16T09:20:58;25.80;99.90
27667;DHT22;15074;50.940;5.282;2023-07-16T09:23:27;25.00;99.90
27667;DHT22;15074;50.940;5.282;2023-07-16T09:25:54;24.70;99.90
27667;DHT22;15074;50.940;5.282;2023-07-16T09:28:20;25.00;99.90
27667;DHT22;15074;50.940;5.282;2023-07-16T09:30:47;24.70;99.90
27667;DHT22;15074;50.940;5.282;2023-07-16T09:33:15;24.50;99.90
27667;DHT22;15074;50.940;5.282;2023-07-16T09:35:41;25.30;99.90
27667;DHT22;15074;50.940;5.282;2023-07-16T09:38:08;26.30;99.90
27667;DHT22;15074;50.940;5.282;2023-07-16T09:40:38;25.20;99.90
27667;DHT22;15074;50.940;5.282;2023-07-16T09:43:05;24.30;99.90
27667;DHT22;15074;50.940;5.282;2023-07-16T09:45:31;24.00;99.90
27667;DHT22;15074;50.940;5.282;2023-07-16T09:47:57;23.70;99.90
27667;DHT22;15074;50.940;5.282;2023-07-16T09:50:23;24.00;99.90
27667;DHT22;15074;50.940;5.282;2023-07-16T09:52:52;24.30;99.90
27667;DHT22;15074;50.940;5.282;2023-07-16T09:55:18;24.30;99.90
27667;DHT22;15074;50.940;5.282;2023-07-16T09:57:47;24.00;99.90
27667;DHT22;15074;50.940;5.282;2023-07-16T10:00:13;25.00;99.90
27667;DHT22;15074;50.940;5.282;2023-07-16T10:02:41;25.90;99.90
27667;DHT22;15074;50.940;5.282;2023-07-16T10:05:24;25.60;99.90
27667;DHT22;15074;50.940;5.282;2023-07-16T10:07:52;24.80;99.90
27667;DHT22;15074;50.940;5.282;2023-07-16T10:10:18;24.00;99.90
27667;DHT22;15074;50.940;5.282;2023-07-16T10:13:00;23.70;99.90
27667;DHT22;15074;50.940;5.282;2023-07-16T10:15:27;23.40;99.90
27667;DHT22;15074;50.940;5.282;2023-07-16T10:17:53;23.90;99.90
27667;DHT22;15074;50.940;5.282;2023-07-16T10:20:37;24.20;99.90
27667;DHT22;15074;50.940;5.282;2023-07-16T10:23:15;23.70;99.90
27667;DHT22;15074;50.940;5.282;2023-07-16T10:26:01;23.50;99.90
27667;DHT22;15074;50.940;5.282;2023-07-16T10:28:31;23.20;99.90
27667;DHT22;15074;50.940;5.282;2023-07-16T10:30:57;23.10;99.90
27667;DHT22;15074;50.940;5.282;2023-07-16T10:33:23;23.00;99.90
27667;DHT22;15074;50.940;5.282;2023-07-16T10:35:48;23.10;99.90
27667;DHT22;15074;50.940;5.282;2023-07-16T10:38:14;23.50;99.90
27667;DHT22;15074;50.940;5.282;2023-07-16T10:40:41;23.40;99.90
27667;DHT22;15074;50.940;5.282;2023-07-16T10:43:07;23.30;99.90
27667;DHT22;15074;50.940;5.282;2023-07-16T10:45:33;23.10;99.90
27667;DHT22;15074;50.940;5.282;2023-07-16T10:47:59;23.10;99.90
27667;DHT22;15074;50.940;5.282;2023-07-16T10:50:25;23.40;99.90
27667;DHT22;15074;50.940;5.282;2023-07-16T10:52:53;23.40;99.90
27667;DHT22;15074;50.940;5.282;2023-07-16T10:55:19;23.50;99.90
27667;DHT22;15074;50.940;5.282;2023-07-16T10:57:47;23.20;99.90
27667;DHT22;15074;50.940;5.282;2023-07-16T11:00:13;23.10;99.90
27667;DHT22;15074;50.940;5.282;2023-07-16T11:02:40;22.90;99.90
27667;DHT22;15074;50.940;5.282;2023-07-16T11:05:12;22.90;99.90
27667;DHT22;15074;50.940;5.282;2023-07-16T11:07:43;22.90;99.90
27667;DHT22;15074;50.940;5.282;2023-07-16T11:10:10;22.70;99.90
27667;DHT22;15074;50.940;5.282;2023-07-16T11:12:36;22.70;99.90
27667;DHT22;15074;50.940;5.282;2023-07-16T11:15:02;23.00;99.90
27667;DHT22;15074;50.940;5.282;2023-07-16T11:17:27;23.40;99.90
27667;DHT22;15074;50.940;5.282;2023-07-16T11:19:54;23.60;99.90
27667;DHT22;15074;50.940;5.282;2023-07-16T11:22:25;23.60;99.90
27667;DHT22;15074;50.940;5.282;2023-07-16T11:24:51;23.60;99.90
27667;DHT22;15074;50.940;5.282;2023-07-16T11:27:18;23.30;99.90
27667;DHT22;15074;50.940;5.282;2023-07-16T11:29:50;23.10;99.90
27667;DHT22;15074;50.940;5.282;2023-07-16T11:34:56;23.70;99.90
27667;DHT22;15074;50.940;5.282;2023-07-16T11:37:24;24.10;99.90
27667;DHT22;15074;50.940;5.282;2023-07-16T11:39:49;24.60;99.90
27667;DHT22;15074;50.940;5.282;2023-07-16T11:44:53;25.10;99.90
27667;DHT22;15074;50.940;5.282;2023-07-16T11:47:20;25.10;99.90
27667;DHT22;15074;50.940;5.282;2023-07-16T11:49:45;24.80;99.90
27667;DHT22;15074;50.940;5.282;2023-07-16T11:52:11;24.50;99.90
27667;DHT22;15074;50.940;5.282;2023-07-16T11:54:37;24.40;99.90
27667;DHT22;15074;50.940;5.282;2023-07-16T11:57:03;24.40;99.90
27667;DHT22;15074;50.940;5.282;2023-07-16T11:59:29;24.60;99.90
27667;DHT22;15074;50.940;5.282;2023-07-16T12:01:54;24.50;99.90
27667;DHT22;15074;50.940;5.282;2023-07-16T12:04:20;24.60;99.90
27667;DHT22;15074;50.940;5.282;2023-07-16T12:06:46;25.00;99.90
27667;DHT22;15074;50.940;5.282;2023-07-16T12:09:12;25.30;99.90
27667;DHT22;15074;50.940;5.282;2023-07-16T12:11:38;25.10;99.90
27667;DHT22;15074;50.940;5.282;2023-07-16T12:14:05;24.80;99.90
27667;DHT22;15074;50.940;5.282;2023-07-16T12:16:31;25.00;99.90
27667;DHT22;15074;50.940;5.282;2023-07-16T12:18:56;25.80;99.90
27667;DHT22;15074;50.940;5.282;2023-07-16T12:21:22;25.90;99.90
27667;DHT22;15074;50.940;5.282;2023-07-16T12:23:48;26.00;99.90
27667;DHT22;15074;50.940;5.282;2023-07-16T12:26:14;26.50;99.90
27667;DHT22;15074;50.940;5.282;2023-07-16T12:28:40;26.10;99.90
27667;DHT22;15074;50.940;5.282;2023-07-16T12:31:05;25.60;99.90
27667;DHT22;15074;50.940;5.282;2023-07-16T12:33:31;25.40;99.90
27667;DHT22;15074;50.940;5.282;2023-07-16T12:35:57;25.40;99.90
27667;DHT22;15074;50.940;5.282;2023-07-16T12:38:22;25.40;99.90
27667;DHT22;15074;50.940;5.282;2023-07-16T12:40:48;25.40;99.90
27667;DHT22;15074;50.940;5.282;2023-07-16T12:43:14;25.90;99.90
27667;DHT22;15074;50.940;5.282;2023-07-16T12:45:39;26.70;99.90
27667;DHT22;15074;50.940;5.282;2023-07-16T12:48:05;27.40;99.90
27667;DHT22;15074;50.940;5.282;2023-07-16T12:50:31;27.20;99.90
27667;DHT22;15074;50.940;5.282;2023-07-16T12:52:56;27.70;99.90
27667;DHT22;15074;50.940;5.282;2023-07-16T12:55:22;28.90;99.90
27667;DHT22;15074;50.940;5.282;2023-07-16T12:57:49;29.40;99.50
27667;DHT22;15074;50.940;5.282;2023-07-16T13:00:15;28.80;98.50
27667;DHT22;15074;50.940;5.282;2023-07-16T13:02:40;28.20;98.10
27667;DHT22;15074;50.940;5.282;2023-07-16T13:05:06;28.10;99.30
27667;DHT22;15074;50.940;5.282;2023-07-16T13:07:32;28.60;98.70
27667;DHT22;15074;50.940;5.282;2023-07-16T13:09:57;28.30;99.50
27667;DHT22;15074;50.940;5.282;2023-07-16T13:12:23;28.10;98.60
27667;DHT22;15074;50.940;5.282;2023-07-16T13:14:49;28.20;99.20
27667;DHT22;15074;50.940;5.282;2023-07-16T13:17:14;28.20;98.10
27667;DHT22;15074;50.940;5.282;2023-07-16T13:19:41;27.90;98.20
27667;DHT22;15074;50.940;5.282;2023-07-16T13:22:07;27.90;98.60
27667;DHT22;15074;50.940;5.282;2023-07-16T13:24:33;28.00;97.90
27667;DHT22;15074;50.940;5.282;2023-07-16T13:26:58;27.80;99.40
27667;DHT22;15074;50.940;5.282;2023-07-16T13:29:24;27.50;99.00
27667;DHT22;15074;50.940;5.282;2023-07-16T13:31:50;27.40;98.90
27667;DHT22;15074;50.940;5.282;2023-07-16T13:34:15;27.00;99.50
27667;DHT22;15074;50.940;5.282;2023-07-16T13:36:41;26.30;98.80
27667;DHT22;15074;50.940;5.282;2023-07-16T13:39:07;26.10;99.90
27667;DHT22;15074;50.940;5.282;2023-07-16T13:41:33;25.90;99.90
27667;DHT22;15074;50.940;5.282;2023-07-16T13:43:58;25.60;99.90
27667;DHT22;15074;50.940;5.282;2023-07-16T13:46:24;25.30;99.90
27667;DHT22;15074;50.940;5.282;2023-07-16T13:48:50;25.00;99.90
27667;DHT22;15074;50.940;5.282;2023-07-16T13:51:15;24.90;99.90
27667;DHT22;15074;50.940;5.282;2023-07-16T13:53:41;24.80;99.90
27667;DHT22;15074;50.940;5.282;2023-07-16T13:56:07;25.10;99.90
27667;DHT22;15074;50.940;5.282;2023-07-16T13:58:33;25.70;99.90
27667;DHT22;15074;50.940;5.282;2023-07-16T14:00:59;26.40;99.90
27667;DHT22;15074;50.940;5.282;2023-07-16T14:03:25;27.10;99.90
27667;DHT22;15074;50.940;5.282;2023-07-16T14:05:51;27.10;99.90
27667;DHT22;15074;50.940;5.282;2023-07-16T14:08:17;26.70;99.90
27667;DHT22;15074;50.940;5.282;2023-07-16T14:10:43;26.40;99.80
27667;DHT22;15074;50.940;5.282;2023-07-16T14:13:09;26.50;99.90
27667;DHT22;15074;50.940;5.282;2023-07-16T14:15:35;26.70;99.90
27667;DHT22;15074;50.940;5.282;2023-07-16T14:18:00;27.30;99.60
27667;DHT22;15074;50.940;5.282;2023-07-16T14:20:26;27.70;98.90
27667;DHT22;15074;50.940;5.282;2023-07-16T14:22:52;27.30;97.50
27667;DHT22;15074;50.940;5.282;2023-07-16T14:25:18;27.30;97.20
27667;DHT22;15074;50.940;5.282;2023-07-16T14:27:43;26.90;96.70
27667;DHT22;15074;50.940;5.282;2023-07-16T14:30:09;26.40;97.80
27667;DHT22;15074;50.940;5.282;2023-07-16T14:32:36;26.60;98.80
27667;DHT22;15074;50.940;5.282;2023-07-16T14:35:02;26.90;98.90
27667;DHT22;15074;50.940;5.282;2023-07-16T14:37:29;27.00;98.20
27667;DHT22;15074;50.940;5.282;2023-07-16T14:39:55;27.40;98.40
27667;DHT22;15074;50.940;5.282;2023-07-16T14:42:20;27.50;96.90
27667;DHT22;15074;50.940;5.282;2023-07-16T14:44:46;27.10;97.30
27667;DHT22;15074;50.940;5.282;2023-07-16T14:47:11;26.50;98.00
27667;DHT22;15074;50.940;5.282;2023-07-16T14:49:37;26.40;98.40
27667;DHT22;15074;50.940;5.282;2023-07-16T14:52:03;26.30;98.90
27667;DHT22;15074;50.940;5.282;2023-07-16T14:54:29;26.30;99.60
27667;DHT22;15074;50.940;5.282;2023-07-16T14:56:54;25.60;99.90
27667;DHT22;15074;50.940;5.282;2023-07-16T14:59:20;25.40;99.90
27667;DHT22;15074;50.940;5.282;2023-07-16T15:01:46;25.10;99.90
27667;DHT22;15074;50.940;5.282;2023-07-16T15:04:11;25.10;99.90
27667;DHT22;15074;50.940;5.282;2023-07-16T15:06:38;25.10;99.90
27667;DHT22;15074;50.940;5.282;2023-07-16T15:09:04;25.00;99.90
27667;DHT22;15074;50.940;5.282;2023-07-16T15:11:30;25.20;99.90
27667;DHT22;15074;50.940;5.282;2023-07-16T15:13:56;25.20;99.90
27667;DHT22;15074;50.940;5.282;2023-07-16T15:16:21;25.10;99.90
27667;DHT22;15074;50.940;5.282;2023-07-16T15:18:47;25.20;99.90
27667;DHT22;15074;50.940;5.282;2023-07-16T15:21:13;25.00;99.90
27667;DHT22;15074;50.940;5.282;2023-07-16T15:23:41;24.60;99.90
27667;DHT22;15074;50.940;5.282;2023-07-16T15:26:07;24.40;99.90
27667;DHT22;15074;50.940;5.282;2023-07-16T15:28:37;24.40;99.90
27667;DHT22;15074;50.940;5.282;2023-07-16T15:31:03;24.40;99.90
27667;DHT22;15074;50.940;5.282;2023-07-16T15:33:29;24.30;99.90
27667;DHT22;15074;50.940;5.282;2023-07-16T15:35:59;24.40;99.90
27667;DHT22;15074;50.940;5.282;2023-07-16T15:38:25;24.30;99.90
27667;DHT22;15074;50.940;5.282;2023-07-16T15:40:52;24.30;99.90
27667;DHT22;15074;50.940;5.282;2023-07-16T15:43:18;24.30;99.90